createdAt,value
2018-11-10T00:02:42.806Z,13.08
2018-11-10T00:07:25.857Z,13.10
2018-11-10T00:12:08.747Z,13.15
2018-11-10T00:16:51.919Z,13.22
2018-11-10T00:21:34.816Z,13.20
2018-11-10T00:26:17.941Z,13.20
2018-11-10T00:31:00.847Z,13.13
2018-11-10T00:35:45.972Z,12.87
2018-11-10T00:40:28.898Z,13.01
2018-11-10T00:45:12.074Z,12.88
2018-11-10T00:49:54.975Z,12.83
2018-11-10T00:54:38.040Z,12.75
2018-11-10T00:59:22.196Z,12.56
2018-11-10T01:04:06.034Z,12.29
2018-11-10T01:08:48.915Z,12.62
2018-11-10T01:13:36.965Z,12.47
2018-11-10T01:18:19.862Z,12.69
2018-11-10T01:23:02.747Z,12.77
2018-11-10T01:27:48.963Z,12.69
2018-11-10T01:32:31.838Z,12.68
2018-11-10T01:37:15.810Z,12.53
2018-11-10T01:41:58.691Z,12.65
2018-11-10T01:46:41.735Z,12.47
2018-11-10T01:51:24.590Z,12.59
2018-11-10T01:56:07.520Z,12.42
2018-11-10T02:00:50.371Z,12.44
2018-11-10T02:05:33.257Z,12.43
2018-11-10T02:10:16.144Z,12.43
2018-11-10T02:15:00.091Z,12.37
2018-11-10T02:19:42.989Z,12.41
2018-11-10T02:24:26.229Z,12.31
2018-11-10T02:29:09.106Z,12.25
2018-11-10T02:33:53.175Z,12.28
2018-11-10T02:38:36.081Z,12.15
2018-11-10T02:43:20.163Z,12.37
2018-11-10T02:48:03.059Z,12.23
2018-11-10T02:52:46.301Z,12.24
2018-11-10T02:57:29.385Z,12.31
2018-11-10T03:02:12.264Z,12.25
2018-11-10T03:06:55.401Z,12.24
2018-11-10T03:11:38.941Z,12.11
2018-11-10T03:16:21.944Z,12.14
2018-11-10T03:21:05.186Z,12.00
2018-11-10T03:25:48.201Z,12.00
2018-11-10T03:30:31.102Z,12.14
2018-11-10T03:35:16.053Z,12.09
2018-11-10T03:39:58.927Z,12.11
2018-11-10T03:44:43.025Z,12.04
2018-11-10T03:49:25.900Z,11.91
2018-11-10T03:54:10.847Z,12.00
2018-11-10T03:58:53.712Z,11.96
2018-11-10T04:03:37.638Z,11.90
2018-11-10T04:08:20.518Z,11.58
2018-11-10T04:13:03.489Z,11.82
2018-11-10T04:17:46.386Z,11.75
2018-11-10T04:22:34.843Z,11.77
2018-11-10T04:27:17.986Z,11.43
2018-11-10T04:32:00.833Z,11.35
2018-11-10T04:36:43.746Z,11.13
2018-11-10T04:41:26.982Z,11.11
2018-11-10T04:46:11.068Z,11.17
2018-11-10T04:50:54.081Z,11.32
2018-11-10T04:55:37.070Z,11.68
2018-11-10T05:00:19.942Z,11.77
2018-11-10T05:05:03.113Z,11.63
2018-11-10T05:09:45.962Z,11.70
2018-11-10T05:14:29.090Z,11.56
2018-11-10T05:19:11.991Z,11.62
2018-11-10T05:23:55.133Z,11.43
2018-11-10T05:28:38.009Z,11.45
2018-11-10T05:33:21.114Z,11.43
2018-11-10T05:38:04.427Z,11.50
2018-11-10T05:42:47.312Z,11.66
2018-11-10T05:47:30.213Z,11.78
2018-11-10T05:52:13.074Z,11.91
2018-11-10T05:56:56.057Z,11.78
2018-11-10T06:01:38.984Z,11.93
2018-11-10T06:06:23.119Z,11.98
2018-11-10T06:11:06.085Z,12.03
2018-11-10T06:15:49.156Z,11.98
2018-11-10T06:20:32.017Z,12.15
2018-11-10T06:25:15.170Z,12.39
2018-11-10T06:29:58.033Z,12.52
2018-11-10T06:34:41.210Z,12.67
2018-11-10T06:39:24.182Z,12.75
2018-11-10T06:44:08.684Z,12.93
2018-11-10T06:48:51.547Z,13.25
2018-11-10T06:53:34.465Z,13.33
2018-11-10T06:58:17.310Z,13.34
2018-11-10T07:03:01.307Z,13.73
2018-11-10T07:07:44.178Z,14.31
2018-11-10T07:12:27.055Z,13.35
2018-11-10T07:17:10.905Z,13.89
2018-11-10T07:21:53.766Z,14.08
2018-11-10T07:26:36.954Z,13.31
2018-11-10T07:31:19.794Z,13.60
2018-11-10T07:36:02.763Z,14.94
2018-11-10T07:40:45.654Z,14.19
2018-11-10T07:45:28.810Z,14.11
2018-11-10T07:50:11.870Z,14.49
2018-11-10T07:54:54.895Z,15.30
2018-11-10T07:59:37.811Z,14.80
2018-11-10T08:04:20.876Z,14.42
2018-11-10T08:09:05.411Z,14.78
2018-11-10T08:13:48.366Z,15.59
2018-11-10T08:18:31.348Z,15.37
2018-11-10T08:23:14.480Z,15.82
2018-11-10T08:27:57.323Z,15.44
2018-11-10T08:32:41.921Z,15.71
2018-11-10T08:37:24.773Z,15.02
2018-11-10T08:42:07.674Z,15.26
2018-11-10T08:46:52.670Z,16.04
2018-11-10T08:51:35.548Z,15.79
2018-11-10T08:56:19.034Z,15.97
2018-11-10T09:01:01.903Z,15.88
2018-11-10T09:05:46.035Z,15.83
2018-11-10T09:10:28.910Z,16.49
2018-11-10T09:15:13.510Z,15.69
2018-11-10T09:19:56.354Z,16.31
2018-11-10T09:24:39.362Z,16.66
2018-11-10T09:29:22.283Z,15.42
2018-11-10T09:34:05.437Z,16.92
2018-11-10T09:38:48.378Z,16.88
2018-11-10T09:43:32.154Z,17.51
2018-11-10T09:48:15.111Z,17.65
2018-11-10T09:52:58.333Z,18.16
2018-11-10T09:57:41.409Z,18.26
2018-11-10T10:02:24.877Z,18.57
2018-11-10T10:07:07.377Z,17.68
2018-11-10T10:11:50.276Z,18.36
2018-11-10T10:16:33.372Z,18.19
2018-11-10T10:21:16.252Z,17.98
2018-11-10T10:25:59.376Z,18.78
2018-11-10T10:30:42.254Z,18.33
2018-11-10T10:35:25.604Z,18.50
2018-11-10T10:40:09.942Z,18.33
2018-11-10T10:44:52.903Z,18.18
2018-11-10T10:49:35.765Z,18.81
2018-11-10T10:54:22.245Z,18.42
2018-11-10T10:59:05.561Z,18.86
2018-11-10T11:03:50.475Z,19.17
2018-11-10T11:08:33.322Z,19.38
2018-11-10T11:13:16.399Z,19.94
2018-11-10T11:17:59.331Z,19.82
2018-11-10T11:22:44.436Z,19.54
2018-11-10T11:27:27.890Z,19.90
2018-11-10T11:32:11.337Z,19.40
2018-11-10T11:36:54.201Z,18.29
2018-11-10T11:41:37.121Z,18.45
2018-11-10T11:46:20.095Z,18.26
2018-11-10T11:51:03.063Z,18.28
2018-11-10T11:55:49.485Z,18.60
2018-11-10T12:00:32.348Z,18.61
2018-11-10T12:05:17.187Z,18.30
2018-11-10T12:10:00.032Z,18.96
2018-11-10T12:14:48.474Z,18.79
2018-11-10T12:19:31.341Z,18.72
2018-11-10T12:24:14.430Z,19.03
2018-11-10T12:28:57.294Z,18.92
2018-11-10T12:33:40.210Z,18.45
2018-11-10T12:38:23.090Z,18.42
2018-11-10T12:43:07.024Z,18.06
2018-11-10T12:47:49.917Z,18.26
2018-11-10T12:52:33.041Z,18.06
2018-11-10T12:57:15.939Z,17.72
2018-11-10T13:02:00.948Z,17.47
2018-11-10T13:06:43.826Z,17.63
2018-11-10T13:11:26.793Z,17.40
2018-11-10T13:16:09.754Z,17.40
2018-11-10T13:20:52.633Z,17.45
2018-11-10T13:25:36.511Z,17.41
2018-11-10T13:30:19.418Z,17.04
2018-11-10T13:35:02.353Z,16.88
2018-11-10T13:39:45.897Z,17.35
2018-11-10T13:44:30.877Z,16.90
2018-11-10T13:49:15.617Z,17.10
2018-11-10T13:54:00.087Z,16.80
2018-11-10T13:58:42.953Z,16.67
2018-11-10T14:03:28.054Z,16.82
2018-11-10T14:08:11.506Z,16.74
2018-11-10T14:12:56.498Z,16.49
2018-11-10T14:17:40.841Z,16.57
2018-11-10T14:22:25.002Z,16.29
2018-11-10T14:27:07.959Z,16.30
2018-11-10T14:31:50.987Z,16.46
2018-11-10T14:36:33.872Z,16.42
2018-11-10T14:41:16.755Z,16.20
2018-11-10T14:46:02.903Z,16.43
2018-11-10T14:50:46.695Z,16.14
2018-11-10T14:55:30.246Z,16.17
2018-11-10T15:00:24.323Z,16.26
2018-11-10T15:05:07.960Z,16.28
2018-11-10T15:09:50.850Z,15.69
2018-11-10T15:14:33.835Z,16.07
2018-11-10T15:19:16.799Z,15.97
2018-11-10T15:24:01.995Z,16.00
2018-11-10T15:28:45.042Z,15.53
2018-11-10T15:33:30.002Z,15.40
2018-11-10T15:38:13.038Z,15.37
2018-11-10T15:42:57.039Z,15.39
2018-11-10T15:47:40.585Z,15.31
2018-11-10T15:52:23.548Z,15.14
2018-11-10T15:57:10.798Z,15.07
2018-11-10T16:01:54.810Z,15.23
2018-11-10T16:06:37.727Z,14.63
2018-11-10T16:11:20.705Z,14.45
2018-11-10T16:16:03.594Z,15.02
2018-11-10T16:20:46.593Z,14.97
2018-11-10T16:25:29.620Z,14.87
2018-11-10T16:30:15.731Z,14.75
2018-11-10T16:34:58.733Z,14.86
2018-11-10T16:39:41.620Z,14.73
2018-11-10T16:44:24.865Z,14.92
2018-11-10T16:49:07.958Z,14.49
2018-11-10T16:53:54.442Z,14.50
2018-11-10T16:58:37.887Z,14.06
2018-11-10T17:03:20.870Z,14.50
2018-11-10T17:08:03.815Z,14.49
2018-11-10T17:12:46.880Z,14.44
2018-11-10T17:17:29.779Z,14.19
2018-11-10T17:22:12.988Z,14.33
2018-11-10T17:26:55.915Z,14.16
2018-11-10T17:31:38.983Z,13.71
2018-11-10T17:36:21.911Z,14.19
2018-11-10T17:41:05.127Z,14.23
2018-11-10T17:45:48.049Z,13.82
2018-11-10T17:50:31.099Z,13.92
2018-11-10T17:55:16.092Z,13.81
2018-11-10T17:59:59.006Z,13.62
2018-11-10T18:04:41.972Z,13.54
2018-11-10T18:09:24.902Z,13.65
2018-11-10T18:14:08.928Z,14.00
2018-11-10T18:18:51.897Z,13.96
2018-11-10T18:23:35.091Z,13.75
2018-11-10T18:28:18.022Z,13.81
2018-11-10T18:33:04.092Z,13.89
2018-11-10T18:37:47.002Z,13.89
2018-11-10T18:42:30.578Z,13.99
2018-11-10T18:47:13.495Z,13.81
2018-11-10T18:51:56.440Z,13.83
2018-11-10T18:56:39.446Z,13.68
2018-11-10T19:01:23.438Z,13.58
2018-11-10T19:06:06.462Z,13.84
2018-11-10T19:10:49.408Z,13.70
2018-11-10T19:15:32.360Z,13.52
2018-11-10T19:20:16.939Z,13.31
2018-11-10T19:25:00.947Z,13.53
2018-11-10T19:29:43.949Z,13.50
2018-11-10T19:34:26.935Z,13.23
2018-11-10T19:39:11.923Z,13.48
2018-11-10T19:43:57.259Z,13.18
2018-11-10T19:48:40.141Z,13.21
2018-11-10T19:53:24.000Z,13.15
2018-11-10T19:58:06.953Z,13.20
2018-11-10T20:02:50.969Z,13.40
2018-11-10T20:07:33.950Z,13.42
2018-11-10T20:12:17.999Z,13.66
2018-11-10T20:17:00.940Z,13.29
2018-11-10T20:21:43.859Z,13.46
2018-11-10T20:26:26.799Z,13.60
2018-11-10T20:31:46.986Z,13.59
2018-11-10T20:36:33.310Z,13.48
2018-11-10T20:41:16.508Z,13.54
2018-11-10T20:45:59.907Z,13.14
2018-11-10T20:50:43.050Z,13.24
2018-11-10T20:55:25.931Z,13.25
2018-11-10T21:00:11.287Z,12.96
2018-11-10T21:04:54.235Z,13.02
2018-11-10T21:09:37.220Z,13.16
2018-11-10T21:14:21.269Z,13.03
2018-11-10T21:19:04.310Z,13.02
2018-11-10T21:23:47.307Z,13.07
2018-11-10T21:28:30.991Z,13.05
2018-11-10T21:33:16.149Z,12.84
2018-11-10T21:37:59.050Z,12.70
2018-11-10T21:42:42.551Z,12.84
2018-11-10T21:47:25.447Z,12.58
2018-11-10T21:52:08.393Z,12.53
2018-11-10T21:56:51.293Z,12.58
2018-11-10T22:01:34.479Z,12.63
2018-11-10T22:06:17.402Z,12.66
2018-11-10T22:11:00.427Z,12.60
2018-11-10T22:15:43.350Z,12.53
2018-11-10T22:20:26.494Z,12.57
2018-11-10T22:25:10.550Z,12.63
2018-11-10T22:29:53.468Z,12.43
2018-11-10T22:34:36.369Z,12.59
2018-11-10T22:39:20.302Z,12.61
2018-11-10T22:44:03.207Z,12.52
2018-11-10T22:48:46.111Z,12.50
2018-11-10T22:53:29.246Z,12.47
2018-11-10T22:58:12.164Z,12.54
2018-11-10T23:02:57.700Z,12.38
2018-11-10T23:07:40.637Z,12.40
2018-11-10T23:12:23.590Z,12.34
2018-11-10T23:17:06.671Z,12.34
2018-11-10T23:21:49.582Z,12.27
2018-11-10T23:26:32.514Z,12.35
2018-11-10T23:31:15.609Z,12.37
2018-11-10T23:35:58.585Z,12.28
2018-11-10T23:40:42.428Z,12.30
2018-11-10T23:45:25.400Z,12.32
2018-11-10T23:50:10.891Z,12.25
2018-11-10T23:54:53.902Z,12.11
2018-11-10T23:59:36.764Z,11.96
